Αναφορές METAR από Ελληνικά Αεροδρόμια

Σε αυτή τη σελίδα, μπορείτε να παρακολουθείτε τις αναφορές METAR που προέρχονται από τα κυριότερα αεροδρόμια της Ελλάδας. Το περιεχόμενο αποκωδικοποιείται, οπτικοποιείται και γίνεται κατανοητό από τον καθένα με τη χρήση του όμορφου δίγλωσσου γραφικού περιβάλλοντος του meteothes.gr!

Η αρχική κωδικοποιημένη αναφορά, συμπεριλαμβάνεται επίσης στο κάτω μέρος. Σε όποια καθεστερεί η ενημέρωση, το προειδοποιητικό μήνυμα "Μη ενημερωμένο METAR!" εμφανίζεται στο πάνω μέρος της με κόκκινα γράμματα.

Εχουν προστεθεί επίσης δύο αεροδρόμια από γειτονικές χώρες, την Οχρίδα(ΠΓΔΜ) και την Σόφια(Βουλγαρία) για να ελέγχουμε την εξέλιξη των ψυχρών εισβολών από τα Βόρεια!

LGTS - Thessaloniki/Makedonia-Elev 7m
Απόσταση από meteothes.gr: Ν 13km
Ενημερώθηκε: 08/04/2020 01:50
Αίθριος
Αίθριος
 Ανεμος από ΝΑ
Ανεμος: ΝΑ 7 km/h
Θερμοκρασία: 8°C
Αίσθηση Ψύχρας: 7°C
Σημ. Δρόσου: 1°C
Υγρασία: 62%
Βαρόμετρο: 1028 hPa
Συνθήκες: Αίθριος
Ορατότητα: πάνω από 10 km
2020/04/07 22:50 LGTS 072250Z 13004KT CAVOK 08/01 Q1028 NOSIG
LGAV - Athens/Elef. Venizelos-Elev 94m
Απόσταση από meteothes.gr: ΝΝΑ 312km
Ενημερώθηκε: 08/04/2020 01:50
Διάσπαρτα Nέφη
Διάσπαρτα Nέφη
 Ανεμος από Β
Ανεμος: Β 37 km/h, Ριπή: 59 km/h
Θερμοκρασία: 11°C
Σημ. Δρόσου: -1°C
Υγρασία: 44%
Βαρόμετρο: 1022 hPa
Νέφωση: Διάσπαρτα Nέφη
Ορατότητα: 10 km
Λεπτομέρειες Νεφών: Διάσπαρτα Nέφη 914 m
2020/04/07 22:50 LGAV 072250Z 01020G32KT 9999 FEW030 11/M01 Q1022 NOSIG
 
LGAL - Alexandroupolis-Elev 3m
Απόσταση από meteothes.gr: Α 251km
Ενημερώθηκε: 07/04/2020 21:50
ΜΗ Ενημερωμένο METAR!
Αίθριος
Αίθριος
 Ανεμος από ΒΒΑ
Ανεμος: ΒΒΑ 37 km/h, Ριπή: 56 km/h
Θερμοκρασία: 11°C
Σημ. Δρόσου: -3°C
Υγρασία: 38%
Βαρόμετρο: 1027 hPa
Συνθήκες: Αίθριος
Ορατότητα: πάνω από 10 km
2020/04/07 18:50 LGAL 071850Z 03020G30KT CAVOK 11/M03 Q1027
LGKV - Kavala/Crysoupolis-Elev 5m
Απόσταση από meteothes.gr: ΑΒΑ 144km
Ενημερώθηκε: 07/04/2020 20:50
ΜΗ Ενημερωμένο METAR!
Αίθριος
Αίθριος
 Ανεμος από ΑΒΑ
Ανεμος: ΑΒΑ 28 km/h
Θερμοκρασία: 13°C
Σημ. Δρόσου: -5°C
Υγρασία: 28%
Βαρόμετρο: 1026 hPa
Συνθήκες: Αίθριος
Ορατότητα: πάνω από 10 km
2020/04/07 17:50 LGKV 071750Z 06015KT CAVOK 13/M05 Q1026
 
LGSK - Skiathos Island-Elev 15m
Απόσταση από meteothes.gr: ΝΝΑ 168km
Ενημερώθηκε: 07/04/2020 13:50
ΜΗ Ενημερωμένο METAR!
Μερικώς νεφελώδης
Μερικώς νεφελώδης
 Ανεμος από ΒΒΑ
Ανεμος: ΒΒΑ 33 km/h, Ριπή: 52 km/h
Θερμοκρασία: 12°C
Σημ. Δρόσου: 3°C
Υγρασία: 54%
Βαρόμετρο: 1026 hPa
Νέφωση: Μερικώς νεφελώδης
Ορατότητα: 10 km
Λεπτομέρειες Νεφών: Διάσπαρτα Nέφη 305 m
Μερικώς νεφελώδης 762 m
2020/04/07 10:50 LGSK 071050Z 03018G28KT 9999 FEW010 SCT025 12/03 Q1026
LGLM - Limnos Island-Elev 5m
Απόσταση από meteothes.gr: ΑΝΑ 210km
Ενημερώθηκε: 08/04/2020 01:50
Διάσπαρτα Nέφη
Διάσπαρτα Nέφη
 Ανεμος από ΒΑ
Ανεμος: ΒΑ 48 km/h, Ριπή: 70 km/h
Θερμοκρασία: 9°C
Αίσθηση Ψύχρας: 4°C
Σημ. Δρόσου: 1°C
Υγρασία: 58%
Βαρόμετρο: 1025 hPa
Νέφωση: Διάσπαρτα Nέφη
Ορατότητα: 10 km
Λεπτομέρειες Νεφών: Διάσπαρτα Nέφη 762 m
2020/04/07 22:50 LGLM 072250Z 04026G38KT 9999 FEW025 09/01 Q1025
 
LGMT - Mitilini Island-Elev 17m
Απόσταση από meteothes.gr: ΑΝΑ 358km
Ενημερώθηκε: 08/04/2020 01:50
Διάσπαρτα Nέφη
Διάσπαρτα Nέφη
 Ανεμος από Β
Ανεμος: Β 7 km/h
Θερμοκρασία: 11°C
Σημ. Δρόσου: 5°C
Υγρασία: 67%
Βαρόμετρο: 1020 hPa
Νέφωση: Διάσπαρτα Nέφη
Ορατότητα: 10 km
Λεπτομέρειες Νεφών: Διάσπαρτα Nέφη 762 m
2020/04/07 22:50 LGMT 072250Z 01004KT 9999 FEW025 11/05 Q1020
LGSY - Skiros Island-Elev 15m
Απόσταση από meteothes.gr: ΝΑ 227km
Ενημερώθηκε: 07/04/2020 21:50
ΜΗ Ενημερωμένο METAR!
Διάσπαρτα Nέφη
Διάσπαρτα Nέφη
 Ανεμος από ΒΒΑ
Ανεμος: ΒΒΑ 59 km/h, Ριπή: 85 km/h
Θερμοκρασία: 13°C
Σημ. Δρόσου: 1°C
Υγρασία: 44%
Βαρόμετρο: 1024 hPa
Νέφωση: Διάσπαρτα Nέφη
Ορατότητα: 10 km
Λεπτομέρειες Νεφών: Διάσπαρτα Nέφη 762 m
2020/04/07 18:50 LGSY 071850Z 03032G46KT 9999 FEW025 13/01 Q1024 RMK FEW080 BLU
 
LGKZ - Kozani-Elev 628m
Απόσταση από meteothes.gr: ΔΝΔ 102km
Ενημερώθηκε: 08/04/2020 01:50

 Ανεμος από Β
Ανεμος: Β 11 km/h
Θερμοκρασία: 4°C
Αίσθηση Ψύχρας: 1°C
Σημ. Δρόσου: -5°C
Υγρασία: 52%
Βαρόμετρο: 1028 hPa
2020/04/07 22:50 LGKZ 072250Z AUTO 35006KT //// // ////// 04/M05 Q1028 RE//
LGIO - Ioannina-Elev 476m
Απόσταση από meteothes.gr: ΔΝΔ 209km
Ενημερώθηκε: 07/04/2020 20:50
ΜΗ Ενημερωμένο METAR!
Μερικώς νεφελώδης
Μερικώς νεφελώδης
 Ανεμος από ΝΑ
Ανεμος: ΝΑ 15 km/h
Θερμοκρασία: 11°C
Σημ. Δρόσου: -2°C
Υγρασία: 41%
Βαρόμετρο: 1023 hPa
Νέφωση: Μερικώς νεφελώδης
Ορατότητα: 10 km
Λεπτομέρειες Νεφών: Μερικώς νεφελώδης 1372 m
2020/04/07 17:50 LGIO 071750Z 14008KT 9999 SCT045 11/M02 Q1023
 
LGZA - Zakinthos-Elev 3m
Απόσταση από meteothes.gr: ΝΝΔ 367km
Ενημερώθηκε: 07/04/2020 12:50
ΜΗ Ενημερωμένο METAR!
Διάσπαρτα Nέφη
Διάσπαρτα Nέφη
 Ανεμος από Β
Ανεμος: Β 24 km/h
Θερμοκρασία: 16°C
Σημ. Δρόσου: 2°C
Υγρασία: 39%
Βαρόμετρο: 1022 hPa
Νέφωση: Διάσπαρτα Nέφη
Ορατότητα: 10 km
Λεπτομέρειες Νεφών: Διάσπαρτα Nέφη 610 m
2020/04/07 09:50 LGZA 070950Z 01013KT 9999 FEW020 16/02 Q1022
LGKR - Corfu Island-Elev 2m
Απόσταση από meteothes.gr: ΔΝΔ 282km
Ενημερώθηκε: 08/04/2020 01:50
Αίθριος
Αίθριος
 Ανεμος από Δ
Ανεμος: Δ 4 km/h
Θερμοκρασία: 9°C
Σημ. Δρόσου: 2°C
Υγρασία: 62%
Βαρόμετρο: 1023 hPa
Συνθήκες: Αίθριος
Ορατότητα: πάνω από 10 km
2020/04/07 22:50 LGKR 072250Z 27002KT CAVOK 09/02 Q1023 NOSIG
 
LGSO - Syros Island-Elev 72m
Απόσταση από meteothes.gr: ΝΝΑ 397km
Ενημερώθηκε: 08/04/2020 01:50
Ασθενής βροχή
Ασθενής βροχή
 Ανεμος από Β
Ανεμος: Β 35 km/h, Ριπή: 54 km/h
Θερμοκρασία: 12°C
Σημ. Δρόσου: 6°C
Υγρασία: 67%
Βαρόμετρο: 1018 hPa
Συνθήκες: Ασθενής βροχή
2020/04/07 22:50 LGSO 072250Z AUTO 35019G29KT //// -RA ////// 12/06 Q1018 RE//
LGMK - Mikonos Island-Elev 123m
Απόσταση από meteothes.gr: ΝΝΑ 412km
Ενημερώθηκε: 07/04/2020 11:50
ΜΗ Ενημερωμένο METAR!
Κυρίως νεφελώδης
Κυρίως νεφελώδης
 Ανεμος από ΒΒΔ
Ανεμος: ΒΒΔ 24 km/h, Ριπή: 43 km/h
Θερμοκρασία: 12°C
Σημ. Δρόσου: 6°C
Υγρασία: 67%
Βαρόμετρο: 1018 hPa
Νέφωση: Κυρίως νεφελώδης
Ορατότητα: 8 km
Λεπτομέρειες Νεφών: Μερικώς νεφελώδης 305 m
Κυρίως νεφελώδης 762 m
2020/04/07 08:50 LGMK 070850Z 34013G23KT 8000 SCT010 BKN025 12/06 Q1018
 
LGSR - Santorini Island-Elev 40m
Απόσταση από meteothes.gr: ΝΝΑ 520km
Ενημερώθηκε: 07/04/2020 20:50
ΜΗ Ενημερωμένο METAR!
Κυρίως νεφελώδης
Κυρίως νεφελώδης
 Ανεμος από ΒΒΔ
Ανεμος: ΒΒΔ 37 km/h
Θερμοκρασία: 14°C
Σημ. Δρόσου: 10°C
Υγρασία: 77%
Βαρόμετρο: 1017 hPa
Νέφωση: Κυρίως νεφελώδης
Ορατότητα: 10 km
Λεπτομέρειες Νεφών: Κυρίως νεφελώδης 762 m
2020/04/07 17:50 LGSR 071750Z 34020KT 9999 BKN025 14/10 Q1017
LGKL - Kalamata-Elev 8m
Απόσταση από meteothes.gr: Ν 405km
Ενημερώθηκε: 08/04/2020 01:50

 Ανεμος από Β
Ανεμος: Β 7 km/h
Θερμοκρασία: 10°C
Αίσθηση Ψύχρας: 9°C
Σημ. Δρόσου: -3°C
Υγρασία: 40%
Βαρόμετρο: 1021 hPa
2020/04/07 22:50 LGKL 072250Z AUTO 35004KT 190V080 //// // ////// 10/M03 Q1021 RE//
 
LGIR - Iraklion/Crete-Elev 5m
Απόσταση από meteothes.gr: ΝΝΑ 622km
Ενημερώθηκε: 08/04/2020 01:50
Συννεφιά
Συννεφιά
 Ανεμος από ΒΔ
Ανεμος: ΒΔ 33 km/h
Θερμοκρασία: 13°C
Σημ. Δρόσου: 9°C
Υγρασία: 77%
Βαρόμετρο: 1018 hPa
Νέφωση: Συννεφιά
Ορατότητα: 10 km
Λεπτομέρειες Νεφών: Διάσπαρτα Nέφη 549 m
Κυρίως νεφελώδης 762 m
Συννεφιά 2438 m
2020/04/07 22:50 LGIR 072250Z 31018KT 9999 FEW018 BKN025 OVC080 13/09 Q1018 NOSIG
LGRP - Rhodes-Elev 5m
Απόσταση από meteothes.gr: ΝΑ 649km
Ενημερώθηκε: 08/04/2020 01:50
Διάσπαρτα Nέφη
Διάσπαρτα Nέφη
 Ανεμος από ΝΔ
Ανεμος: ΝΔ 9 km/h
Θερμοκρασία: 15°C
Σημ. Δρόσου: 12°C
Υγρασία: 82%
Βαρόμετρο: 1013 hPa
Νέφωση: Διάσπαρτα Nέφη
Ορατότητα: 10 km
Λεπτομέρειες Νεφών: Διάσπαρτα Nέφη 549 m
2020/04/07 22:50 LGRP 072250Z 22005KT 9999 FEW018 15/12 Q1013 NOSIG
 
LWOH - Ohrid/FYROM-Elev 761m
Απόσταση από meteothes.gr: ΔΒΔ 188km
Ενημερώθηκε: 07/04/2020 18:00
ΜΗ Ενημερωμένο METAR!
Διάσπαρτα Nέφη
Διάσπαρτα Nέφη
 Ανεμος από ΒΒΑ
Ανεμος: ΒΒΑ 11 km/h
Θερμοκρασία: 14°C
Σημ. Δρόσου: -13°C
Υγρασία: 14%
Βαρόμετρο: 1026 hPa
Νέφωση: Διάσπαρτα Nέφη
Ορατότητα: 10 km
Λεπτομέρειες Νεφών: Διάσπαρτα Nέφη 1219 m
2020/04/07 15:00 LWOH 071500Z 02006KT 350V080 9999 FEW040 14/M13 Q1026
LBSF - Sofia/Bulgaria-Elev 595m
Απόσταση από meteothes.gr: Β 227km
Ενημερώθηκε: 08/04/2020 02:00
Αίθριος
Αίθριος
 Ανεμος από μεταβλητός
Ανεμος: μεταβλητός 2 km/h
Θερμοκρασία: 3°C
Σημ. Δρόσου: -6°C
Υγρασία: 52%
Βαρόμετρο: 1031 hPa
Συνθήκες: Αίθριος
Ορατότητα: πάνω από 10 km
2020/04/07 23:00 LBSF 072300Z VRB01KT CAVOK 03/M06 Q1031 NOSIG

(*) Μερικές αναφορές παρουσιάζουν λιγότερα στοιχεία γιατί οι αρχικές είναι ελλιπείς ή έχουν λάθος μορφοποίηση!

Please disable your adblock and script blockers to view this page